Time;durP1;ratioP1;P1;durP2;ratioP2;P2;SDS_P1;SDS_P2;PMS_P1;PMS_P2;Temp;Humidity;BMP_temperature;BMP_pressure;BME280_temperature;BME280_humidity;BME280_pressure;Samples;Min_cycle;Max_cycle;Signal;HPM_P1;HPM_P2
2022/12/13 00:01:50;;;;;;;55.35;29.13;;;-3.40;99.90;;;;;;5065504;28;20056;-80
2022/12/13 00:04:18;;;;;;;57.70;30.63;;;-3.40;99.90;;;;;;5076985;28;20048;-80
2022/12/13 00:06:44;;;;;;;66.78;34.78;;;-3.40;99.90;;;;;;5089899;28;20043;-80
2022/12/13 00:09:12;;;;;;;63.88;33.85;;;-3.40;99.90;;;;;;5082600;28;20044;-80
2022/12/13 00:11:38;;;;;;;58.30;30.30;;;-3.20;99.90;;;;;;5089234;28;20044;-80
2022/12/13 00:14:04;;;;;;;62.30;32.78;;;-3.40;99.90;;;;;;5090537;28;20104;-80
2022/12/13 00:16:29;;;;;;;69.20;33.78;;;-3.30;99.90;;;;;;5082781;28;20047;-80
2022/12/13 00:18:57;;;;;;;56.47;30.67;;;-3.30;99.90;;;;;;5085557;28;20483;-80
2022/12/13 00:21:26;;;;;;;64.28;33.10;;;-3.50;99.90;;;;;;5079101;28;20047;-81
2022/12/13 00:23:52;;;;;;;61.38;31.40;;;-3.50;99.90;;;;;;5086960;28;20449;-80
2022/12/13 00:26:22;;;;;;;64.00;30.95;;;-3.50;99.90;;;;;;5092525;28;20051;-83
2022/12/13 00:28:50;;;;;;;56.90;30.15;;;-3.50;99.90;;;;;;5088436;28;20047;-80
2022/12/13 00:31:17;;;;;;;59.00;30.45;;;-2.90;99.90;;;;;;5077161;28;20060;-80
2022/12/13 00:33:43;;;;;;;61.15;31.48;;;-3.60;99.90;;;;;;5112815;28;20130;-80
2022/12/13 00:36:09;;;;;;;61.58;31.05;;;-3.60;99.90;;;;;;5096190;28;20047;-80
2022/12/13 00:38:36;;;;;;;62.22;31.48;;;-3.60;99.90;;;;;;5093221;28;20044;-80
2022/12/13 00:41:16;;;;;;;68.88;34.42;;;-3.60;99.90;;;;;;5059631;28;20050;-81
2022/12/13 00:43:42;;;;;;;60.85;32.13;;;-3.60;99.90;;;;;;5096946;28;20047;-80
2022/12/13 00:46:13;;;;;;;61.67;32.65;;;-3.70;99.90;;;;;;5095868;28;20108;-80
2022/12/13 00:48:39;;;;;;;62.80;31.17;;;-3.70;99.90;;;;;;5081850;28;20052;-80
2022/12/13 00:51:07;;;;;;;60.55;30.88;;;-3.70;99.90;;;;;;5042274;28;20297;-82
2022/12/13 00:53:33;;;;;;;62.45;32.00;;;-3.70;99.90;;;;;;5092975;28;20059;-80
2022/12/13 00:55:58;;;;;;;69.28;34.13;;;-3.70;99.90;;;;;;5075876;28;20523;-80
2022/12/13 00:58:24;;;;;;;66.18;33.53;;;-3.80;99.90;;;;;;5074176;28;20056;-80
2022/12/13 01:00:50;;;;;;;65.85;33.83;;;-3.80;99.90;;;;;;5078889;28;20052;-80
2022/12/13 01:03:24;;;;;;;66.65;33.58;;;-3.80;99.90;;;;;;5075683;28;20105;-80
2022/12/13 01:05:50;;;;;;;70.22;34.15;;;-3.80;99.90;;;;;;5066532;28;20514;-80
2022/12/13 01:08:16;;;;;;;67.38;35.13;;;-2.90;99.90;;;;;;5091804;28;20047;-80
2022/12/13 01:10:46;;;;;;;72.07;34.63;;;-3.80;99.90;;;;;;5069733;28;20490;-80
2022/12/13 01:13:13;;;;;;;64.88;34.08;;;-3.80;99.90;;;;;;5075841;28;20048;-80
2022/12/13 01:15:43;;;;;;;60.75;32.30;;;-3.80;99.90;;;;;;5088625;28;20062;-81
2022/12/13 01:18:10;;;;;;;67.82;33.08;;;-3.80;99.90;;;;;;5094920;28;20040;-80
2022/12/13 01:20:36;;;;;;;61.42;32.72;;;-3.80;99.90;;;;;;5100572;28;20051;-79
2022/12/13 01:23:02;;;;;;;68.10;34.70;;;-3.60;99.90;;;;;;5094551;28;20054;-81
2022/12/13 01:25:27;;;;;;;71.63;35.75;;;-3.80;99.90;;;;;;5110520;28;20048;-80
2022/12/13 01:27:53;;;;;;;63.28;32.58;;;-3.80;99.90;;;;;;5095530;28;20138;-79
2022/12/13 01:30:19;;;;;;;60.70;31.67;;;-3.80;99.90;;;;;;5095738;28;20044;-80
2022/12/13 01:32:44;;;;;;;61.70;32.17;;;-3.80;99.90;;;;;;5078600;28;20054;-80
2022/12/13 01:35:13;;;;;;;57.78;31.73;;;-3.80;99.90;;;;;;5112295;28;20094;-80
2022/12/13 01:37:39;;;;;;;58.47;31.85;;;-3.80;99.90;;;;;;5068478;28;20052;-80
2022/12/13 01:40:05;;;;;;;60.08;31.25;;;-3.80;99.90;;;;;;5075139;28;20037;-80
2022/12/13 01:42:31;;;;;;;58.03;30.80;;;-3.80;99.90;;;;;;5048981;28;20050;-79
2022/12/13 01:44:59;;;;;;;57.45;30.55;;;-3.80;99.90;;;;;;5085338;28;20047;-80
2022/12/13 01:47:30;;;;;;;60.25;31.10;;;-3.80;99.90;;;;;;5092068;28;20438;-79
2022/12/13 01:50:00;;;;;;;59.63;31.10;;;-3.10;99.90;;;;;;5095411;28;20096;-80
2022/12/13 01:52:28;;;;;;;59.53;30.98;;;-3.80;99.90;;;;;;5086720;28;20123;-79
2022/12/13 01:54:56;;;;;;;60.83;31.42;;;-3.10;99.90;;;;;;5095056;28;20048;-79
2022/12/13 01:57:23;;;;;;;56.50;30.35;;;-3.80;99.90;;;;;;5081418;28;20471;-80
2022/12/13 01:59:50;;;;;;;55.35;30.40;;;-3.90;99.90;;;;;;5082214;28;20056;-80
2022/12/13 02:02:16;;;;;;;54.20;30.42;;;-3.90;99.90;;;;;;5076827;28;20085;-79
2022/12/13 02:05:14;;;;;;;60.13;29.92;;;-3.80;99.90;;;;;;5058592;28;20080;-80
2022/12/13 02:07:42;;;;;;;55.05;29.75;;;-3.90;99.90;;;;;;5078536;28;20043;-79
2022/12/13 02:10:09;;;;;;;72.93;34.67;;;-3.90;99.90;;;;;;5075340;28;20399;-79
2022/12/13 02:12:36;;;;;;;57.35;31.10;;;-3.90;99.90;;;;;;5087172;28;20052;-79
2022/12/13 02:15:13;;;;;;;57.88;30.65;;;-3.90;99.90;;;;;;5075431;28;20052;-79
2022/12/13 02:17:51;;;;;;;61.22;31.23;;;-3.90;99.90;;;;;;5074446;28;20072;-80
2022/12/13 02:20:40;;;;;;;66.65;33.45;;;-3.90;99.90;;;;;;5083558;28;20074;-79
2022/12/13 02:23:43;;;;;;;60.70;31.95;;;-4.00;99.90;;;;;;5110775;28;20058;-79
2022/12/13 02:26:28;;;;;;;58.13;30.23;;;-4.00;99.90;;;;;;5094880;28;20051;-79
2022/12/13 02:28:59;;;;;;;58.03;30.58;;;-4.00;99.90;;;;;;5095164;28;20051;-80
2022/12/13 02:31:45;;;;;;;50.72;27.55;;;-4.00;99.90;;;;;;5094668;28;20395;-79
2022/12/13 02:34:31;;;;;;;56.58;29.35;;;-4.00;99.90;;;;;;5072468;28;20116;-79
2022/12/13 02:37:03;;;;;;;53.03;28.50;;;-3.10;99.90;;;;;;5089571;28;20052;-79
2022/12/13 02:39:42;;;;;;;50.70;27.47;;;-4.00;99.90;;;;;;5087032;28;20047;-79
2022/12/13 02:42:40;;;;;;;49.35;26.63;;;-4.10;99.90;;;;;;5087368;28;20340;-79
2022/12/13 02:45:15;;;;;;;50.00;26.65;;;-4.00;99.90;;;;;;5091593;28;20491;-80
2022/12/13 02:47:43;;;;;;;47.40;25.83;;;-4.10;99.90;;;;;;5090775;28;20048;-78
2022/12/13 02:50:11;;;;;;;49.42;27.17;;;-4.10;99.90;;;;;;5091458;28;20039;-80
2022/12/13 02:52:41;;;;;;;51.10;27.25;;;-4.00;99.90;;;;;;5067286;28;20515;-79
2022/12/13 02:55:11;;;;;;;53.70;27.92;;;-3.50;99.90;;;;;;5078179;28;20511;-79
2022/12/13 02:57:43;;;;;;;55.70;29.02;;;-4.10;99.90;;;;;;5075262;28;20373;-79
2022/12/13 03:00:45;;;;;;;54.88;29.15;;;-4.10;99.90;;;;;;5074958;28;20040;-79
2022/12/13 03:03:40;;;;;;;53.90;28.08;;;-4.10;99.90;;;;;;5085813;28;20082;-79
2022/12/13 03:06:33;;;;;;;52.92;27.90;;;-4.10;99.90;;;;;;5077548;28;20040;-79
2022/12/13 03:09:58;;;;;;;48.00;25.75;;;-4.10;99.90;;;;;;5077961;28;20144;-78
2022/12/13 03:15:58;;;;;;;49.25;25.65;;;-4.10;99.90;;;;;;5013630;28;20572;-79
2022/12/13 03:18:26;;;;;;;50.33;27.45;;;-4.20;99.90;;;;;;5036028;28;20404;-79
2022/12/13 03:20:58;;;;;;;44.60;24.00;;;-4.20;99.90;;;;;;5066925;28;20055;-79
2022/12/13 03:23:25;;;;;;;48.40;26.42;;;-4.20;99.90;;;;;;5090293;28;20055;-78
2022/12/13 03:25:58;;;;;;;46.55;27.08;;;-4.20;99.90;;;;;;5105924;28;20036;-79
2022/12/13 03:28:24;;;;;;;48.03;26.95;;;-4.20;99.90;;;;;;5079875;28;20047;-79
2022/12/13 03:30:49;;;;;;;47.72;26.60;;;-4.20;99.90;;;;;;5079556;28;20043;-79
2022/12/13 03:33:15;;;;;;;50.83;28.23;;;-4.20;99.90;;;;;;5076787;28;20048;-79
2022/12/13 03:35:42;;;;;;;47.85;26.58;;;-4.30;99.90;;;;;;5068996;28;20055;-79
2022/12/13 03:38:10;;;;;;;51.05;27.50;;;-4.30;99.90;;;;;;5079189;28;20120;-79
2022/12/13 03:40:36;;;;;;;48.75;27.67;;;-4.30;99.90;;;;;;5077111;28;20154;-79
2022/12/13 03:43:02;;;;;;;51.00;26.38;;;-4.30;99.90;;;;;;5077953;28;20056;-79
2022/12/13 03:45:27;;;;;;;48.38;26.65;;;-4.30;99.90;;;;;;5059849;28;20598;-78
2022/12/13 03:47:53;;;;;;;52.33;28.00;;;-4.40;99.90;;;;;;5079827;28;20177;-79
2022/12/13 03:50:21;;;;;;;54.88;28.65;;;-4.40;99.90;;;;;;5091851;28;20066;-79
2022/12/13 03:52:49;;;;;;;50.75;27.30;;;-4.40;99.90;;;;;;5076198;28;20062;-79
2022/12/13 03:55:15;;;;;;;55.53;28.77;;;-4.40;99.90;;;;;;5093779;28;20460;-79
2022/12/13 03:57:41;;;;;;;51.55;27.42;;;-4.40;99.90;;;;;;5061895;28;20072;-79
2022/12/13 04:00:08;;;;;;;54.17;28.95;;;-4.50;99.90;;;;;;5060625;28;20052;-80
2022/12/13 04:02:33;;;;;;;55.60;28.25;;;-4.50;99.90;;;;;;5059797;28;20498;-79
2022/12/13 04:04:59;;;;;;;58.55;29.02;;;-4.60;99.90;;;;;;5079004;28;20207;-79
2022/12/13 04:07:25;;;;;;;54.25;28.25;;;-4.60;99.90;;;;;;5103108;28;20044;-78
2022/12/13 04:09:50;;;;;;;52.42;27.35;;;-4.60;99.90;;;;;;5063877;28;20047;-78
2022/12/13 04:15:00;;;;;;;49.78;26.63;;;-4.70;99.90;;;;;;5077644;28;20434;-79
2022/12/13 04:17:26;;;;;;;49.55;27.38;;;-4.60;99.90;;;;;;5079594;28;20487;-79
2022/12/13 04:19:51;;;;;;;47.80;25.17;;;-4.60;99.90;;;;;;5088152;28;20066;-79
2022/12/13 04:22:17;;;;;;;51.25;27.00;;;-4.60;99.90;;;;;;5061073;28;20122;-79
2022/12/13 04:24:43;;;;;;;48.70;25.98;;;-4.60;99.90;;;;;;5086089;28;20036;-79
2022/12/13 04:27:08;;;;;;;48.92;26.20;;;-4.60;99.90;;;;;;5086985;28;20071;-79
2022/12/13 04:29:34;;;;;;;48.15;26.55;;;-4.60;99.90;;;;;;5076888;28;20047;-79
2022/12/13 04:32:00;;;;;;;47.38;26.63;;;-4.60;99.90;;;;;;5078946;28;20040;-79
2022/12/13 04:34:26;;;;;;;49.30;26.77;;;-4.60;99.90;;;;;;5075855;28;20047;-79
2022/12/13 04:36:52;;;;;;;51.35;27.55;;;-4.60;99.90;;;;;;5071945;28;20043;-79
2022/12/13 04:39:17;;;;;;;51.33;28.13;;;-4.60;99.90;;;;;;5095754;28;20099;-79
2022/12/13 04:41:43;;;;;;;56.53;27.50;;;-4.60;99.90;;;;;;5061602;28;20036;-79
2022/12/13 04:44:09;;;;;;;50.65;27.17;;;-4.70;99.90;;;;;;5085467;28;20485;-79
2022/12/13 04:46:35;;;;;;;51.92;27.50;;;-4.70;99.90;;;;;;5088261;28;20059;-79
2022/12/13 04:49:01;;;;;;;48.60;25.73;;;-4.80;99.90;;;;;;5089400;28;20044;-79
2022/12/13 04:51:27;;;;;;;51.70;26.15;;;-4.80;99.90;;;;;;5084745;28;20502;-79
2022/12/13 04:53:52;;;;;;;48.30;26.02;;;-4.90;99.90;;;;;;5075117;28;20612;-79
2022/12/13 04:56:19;;;;;;;47.15;25.80;;;-4.90;99.90;;;;;;5081490;28;20135;-79
2022/12/13 04:58:44;;;;;;;59.80;28.95;;;-4.90;99.90;;;;;;5095957;28;20056;-79
2022/12/13 05:01:11;;;;;;;59.78;28.17;;;-4.80;99.90;;;;;;5099144;28;20076;-78
2022/12/13 05:03:37;;;;;;;61.33;29.48;;;-3.60;99.90;;;;;;5078467;28;20059;-78
2022/12/13 05:06:12;;;;;;;58.83;30.30;;;-4.40;99.90;;;;;;5095857;28;20083;-81
2022/12/13 05:08:38;;;;;;;57.95;29.73;;;-4.80;99.90;;;;;;5112623;28;20489;-79
2022/12/13 05:11:04;;;;;;;63.20;30.17;;;-4.90;99.90;;;;;;5092329;28;20496;-79
2022/12/13 05:13:30;;;;;;;66.22;31.98;;;-4.90;99.90;;;;;;5092791;28;20044;-79
2022/12/13 05:15:57;;;;;;;68.32;31.90;;;-4.90;99.90;;;;;;5059031;28;20369;-79
2022/12/13 05:18:23;;;;;;;64.28;30.50;;;-4.90;99.90;;;;;;5076252;28;20086;-79
2022/12/13 05:20:51;;;;;;;66.55;32.00;;;-4.70;99.90;;;;;;5094574;28;20077;-78
2022/12/13 05:23:19;;;;;;;64.47;32.42;;;-4.90;99.90;;;;;;5095358;28;20387;-79
2022/12/13 05:25:45;;;;;;;64.38;31.80;;;-4.90;99.90;;;;;;5091387;28;20086;-79
2022/12/13 05:28:11;;;;;;;66.07;31.77;;;-4.90;99.90;;;;;;5067307;28;20500;-79
2022/12/13 05:30:38;;;;;;;61.45;31.08;;;-4.10;99.90;;;;;;5074674;28;20131;-79
2022/12/13 05:33:03;;;;;;;66.35;32.20;;;-5.00;99.90;;;;;;5065126;28;20048;-79
2022/12/13 05:35:29;;;;;;;67.47;31.77;;;-4.90;99.90;;;;;;5074291;28;20048;-79
2022/12/13 05:37:55;;;;;;;69.40;33.60;;;-4.90;99.90;;;;;;5086537;28;20093;-79
2022/12/13 05:40:25;;;;;;;61.30;30.27;;;-4.90;99.90;;;;;;5100541;28;20075;-79
2022/12/13 05:42:51;;;;;;;59.50;30.83;;;-4.90;99.90;;;;;;5081293;28;20055;-79
2022/12/13 05:45:18;;;;;;;61.47;30.30;;;-4.40;99.90;;;;;;5078097;28;20047;-79
2022/12/13 05:47:45;;;;;;;75.70;35.00;;;-4.80;99.90;;;;;;5095193;28;20391;-79
2022/12/13 05:50:12;;;;;;;69.47;35.58;;;-4.80;99.90;;;;;;5076554;28;20052;-79
2022/12/13 05:52:37;;;;;;;83.28;38.00;;;-4.90;99.90;;;;;;5074271;28;20079;-79
2022/12/13 05:55:03;;;;;;;68.15;33.10;;;-5.00;99.90;;;;;;5077138;28;20079;-79
2022/12/13 05:57:29;;;;;;;64.22;32.80;;;-5.00;99.90;;;;;;5078414;28;20040;-80
2022/12/13 05:59:55;;;;;;;61.85;31.27;;;-5.10;99.90;;;;;;5074165;28;20048;-79
2022/12/13 06:02:22;;;;;;;72.50;33.33;;;-5.00;99.90;;;;;;5074293;28;20054;-79
2022/12/13 06:04:47;;;;;;;60.38;30.88;;;-5.00;99.90;;;;;;5090003;28;20043;-79
2022/12/13 06:07:13;;;;;;;63.50;30.90;;;-4.10;99.90;;;;;;5060636;28;20055;-79
2022/12/13 06:09:39;;;;;;;73.43;36.17;;;-4.90;99.90;;;;;;5083039;28;20050;-79
2022/12/13 06:12:05;;;;;;;75.32;36.15;;;-4.90;99.90;;;;;;5093526;28;20122;-80
2022/12/13 06:14:31;;;;;;;71.82;34.70;;;-5.00;99.90;;;;;;5085265;28;20051;-79
2022/12/13 06:16:57;;;;;;;64.57;31.23;;;-5.00;99.90;;;;;;5089979;28;20040;-79
2022/12/13 06:19:23;;;;;;;66.78;33.83;;;-5.10;99.90;;;;;;5078150;28;20055;-79
2022/12/13 06:21:51;;;;;;;68.10;32.80;;;-5.10;99.90;;;;;;5081131;28;20066;-79
2022/12/13 06:24:19;;;;;;;66.18;32.75;;;-5.10;99.90;;;;;;5088520;28;20075;-79
2022/12/13 06:26:45;;;;;;;74.32;36.15;;;-5.10;99.90;;;;;;5068309;28;20044;-82
2022/12/13 06:29:12;;;;;;;71.38;36.20;;;-5.10;99.90;;;;;;5044979;28;20087;-78
2022/12/13 06:31:38;;;;;;;73.03;35.40;;;-5.10;99.90;;;;;;5068422;28;20535;-79
2022/12/13 06:34:04;;;;;;;65.43;33.05;;;-5.10;99.90;;;;;;5074900;28;20067;-79
2022/12/13 06:36:30;;;;;;;68.43;34.40;;;-5.10;99.90;;;;;;5095427;28;20039;-79
2022/12/13 06:38:56;;;;;;;73.70;35.50;;;-5.10;99.90;;;;;;5085628;28;20383;-79
2022/12/13 06:41:21;;;;;;;72.68;35.60;;;-5.10;99.90;;;;;;5060798;28;20040;-79
2022/12/13 06:43:47;;;;;;;68.75;34.40;;;-5.10;99.90;;;;;;5061448;28;20529;-79
2022/12/13 06:46:14;;;;;;;68.70;33.83;;;-5.10;99.90;;;;;;5062023;28;20067;-79
2022/12/13 06:48:40;;;;;;;68.97;34.60;;;-5.10;99.90;;;;;;5083609;28;20043;-79
2022/12/13 06:51:07;;;;;;;64.78;33.13;;;-5.10;99.90;;;;;;5086833;28;20052;-80
2022/12/13 06:53:36;;;;;;;68.43;33.08;;;-5.10;99.90;;;;;;5073805;28;20062;-79
2022/12/13 06:56:13;;;;;;;66.90;33.88;;;-5.10;99.90;;;;;;5077937;28;20109;-80
2022/12/13 06:58:40;;;;;;;72.90;34.95;;;-4.60;99.90;;;;;;5047943;28;20063;-79
2022/12/13 07:01:08;;;;;;;70.65;33.58;;;-5.10;99.90;;;;;;5067340;28;20056;-79
2022/12/13 07:03:35;;;;;;;69.00;33.83;;;-5.10;99.90;;;;;;5060172;28;20377;-79
2022/12/13 07:06:15;;;;;;;77.15;36.15;;;-5.10;99.90;;;;;;5061093;28;20075;-82
2022/12/13 07:08:42;;;;;;;73.22;36.05;;;-5.10;99.90;;;;;;5077109;28;20052;-79
2022/12/13 07:11:14;;;;;;;66.40;34.13;;;-4.40;99.90;;;;;;5076491;28;20063;-79
2022/12/13 07:13:40;;;;;;;;;;;-5.20;99.90;;;;;;5077689;28;20458;-79
2022/12/13 07:16:06;;;;;;;63.50;32.08;;;-5.20;99.90;;;;;;5077750;28;20006;-79
2022/12/13 07:18:32;;;;;;;69.70;33.20;;;-5.30;99.90;;;;;;5074225;28;20492;-79
2022/12/13 07:20:58;;;;;;;67.63;33.75;;;-5.30;99.90;;;;;;5038558;28;20090;-79
2022/12/13 07:23:23;;;;;;;71.72;34.17;;;-5.40;99.90;;;;;;5074977;28;20044;-80
2022/12/13 07:25:53;;;;;;;70.18;34.53;;;-5.40;99.90;;;;;;5075558;28;20131;-79
2022/12/13 07:28:20;;;;;;;65.72;33.20;;;-5.40;99.90;;;;;;5072128;28;20105;-79
2022/12/13 07:30:46;;;;;;;65.68;32.95;;;-5.50;99.90;;;;;;5074113;28;20075;-79
2022/12/13 07:33:13;;;;;;;64.90;31.00;;;-5.00;99.90;;;;;;5075076;28;20272;-79
2022/12/13 07:35:39;;;;;;;60.90;31.33;;;-4.80;99.90;;;;;;5075318;28;20068;-79
2022/12/13 07:38:06;;;;;;;67.80;32.22;;;-5.40;99.90;;;;;;5057767;28;20074;-79
2022/12/13 07:40:33;;;;;;;65.00;32.50;;;-4.40;99.90;;;;;;5074165;28;20069;-79
2022/12/13 07:42:59;;;;;;;65.40;32.85;;;-5.30;99.90;;;;;;5074054;28;20119;-79
2022/12/13 07:45:25;;;;;;;64.68;31.80;;;-5.30;99.90;;;;;;5055878;28;20123;-79
2022/12/13 07:47:51;;;;;;;72.82;33.85;;;-5.30;99.90;;;;;;5056488;28;20523;-79
2022/12/13 07:50:19;;;;;;;66.85;32.83;;;-5.40;99.90;;;;;;5057371;28;20059;-78
2022/12/13 07:52:47;;;;;;;62.78;31.38;;;-5.40;99.90;;;;;;5056672;28;20059;-79
2022/12/13 07:55:13;;;;;;;66.63;32.38;;;-5.40;99.90;;;;;;5075137;28;20540;-78
2022/12/13 07:57:38;;;;;;;67.18;32.35;;;-5.40;99.90;;;;;;5072020;28;20056;-79
2022/12/13 08:00:04;;;;;;;66.18;32.88;;;-5.30;99.90;;;;;;5092620;28;20518;-78
2022/12/13 08:02:30;;;;;;;63.05;31.70;;;-5.30;99.90;;;;;;5110891;28;20056;-78
2022/12/13 08:04:56;;;;;;;65.28;30.88;;;-4.90;99.90;;;;;;5077503;28;20040;-78
2022/12/13 08:07:22;;;;;;;60.88;30.75;;;-5.30;99.90;;;;;;5093407;28;20057;-78
2022/12/13 08:09:47;;;;;;;62.42;31.58;;;-5.20;99.90;;;;;;5092457;28;20510;-78
2022/12/13 08:12:14;;;;;;;60.83;30.75;;;-5.20;99.90;;;;;;5077488;28;20415;-78
2022/12/13 08:14:39;;;;;;;64.68;30.92;;;-5.20;99.90;;;;;;5094395;28;20043;-78
2022/12/13 08:17:05;;;;;;;67.30;31.77;;;-5.20;99.90;;;;;;5073719;28;20062;-78
2022/12/13 08:19:31;;;;;;;62.17;31.17;;;-5.10;99.90;;;;;;5077139;28;20051;-78
2022/12/13 08:21:56;;;;;;;69.32;32.35;;;-5.10;99.90;;;;;;5092735;28;20048;-78
2022/12/13 08:24:24;;;;;;;63.65;32.70;;;-5.00;99.90;;;;;;5086563;28;20399;-78
2022/12/13 08:26:49;;;;;;;64.57;33.63;;;-5.00;99.90;;;;;;5092793;28;20620;-78
2022/12/13 08:29:15;;;;;;;73.85;34.40;;;-5.00;99.90;;;;;;5075125;28;20146;-78
2022/12/13 08:31:41;;;;;;;66.22;34.10;;;-4.90;99.90;;;;;;5059420;28;20043;-78
2022/12/13 08:34:07;;;;;;;67.07;33.72;;;-4.90;99.90;;;;;;5059201;28;20051;-78
2022/12/13 08:36:33;;;;;;;80.70;37.40;;;-4.70;99.90;;;;;;5081669;28;20463;-78
2022/12/13 08:39:01;;;;;;;75.95;37.20;;;-4.50;99.90;;;;;;5097925;28;20128;-80
2022/12/13 08:41:28;;;;;;;84.15;38.75;;;-4.40;99.90;;;;;;5088733;28;20036;-78
2022/12/13 08:43:53;;;;;;;101.85;42.17;;;-4.30;99.90;;;;;;5080872;28;20118;-78
2022/12/13 08:46:19;;;;;;;95.50;42.25;;;-4.10;99.90;;;;;;5075090;28;20197;-77
2022/12/13 08:48:45;;;;;;;94.50;42.33;;;-4.00;99.90;;;;;;5075898;28;20130;-78
2022/12/13 08:51:17;;;;;;;108.00;42.88;;;-3.80;99.90;;;;;;5088731;28;20133;-77
2022/12/13 08:53:42;;;;;;;91.03;40.33;;;-3.70;99.90;;;;;;5088300;28;20556;-77
2022/12/13 08:56:11;;;;;;;105.60;44.53;;;-3.60;99.90;;;;;;5091053;28;20039;-77
2022/12/13 08:58:38;;;;;;;97.47;43.13;;;-3.50;99.90;;;;;;5092739;28;20058;-77
2022/12/13 09:01:05;;;;;;;100.13;43.83;;;-3.30;99.90;;;;;;5093150;28;20059;-77
2022/12/13 09:03:31;;;;;;;104.25;44.72;;;-3.20;99.90;;;;;;5092256;28;20222;-76
2022/12/13 09:06:04;;;;;;;91.72;42.42;;;-3.00;99.90;;;;;;5110829;28;20139;-77
2022/12/13 09:08:29;;;;;;;90.38;41.70;;;-2.90;99.90;;;;;;5091971;28;20047;-76
2022/12/13 09:10:59;;;;;;;81.82;39.58;;;-2.90;99.90;;;;;;5072657;28;20044;-77
2022/12/13 09:13:27;;;;;;;89.90;41.17;;;-2.50;99.90;;;;;;5090852;28;20081;-76
2022/12/13 09:16:05;;;;;;;85.13;40.45;;;-2.50;99.90;;;;;;5145092;27;20127;-74
2022/12/13 09:18:31;;;;;;;81.35;38.55;;;-2.60;99.90;;;;;;5107178;28;20039;-74
2022/12/13 09:20:57;;;;;;;75.88;37.83;;;-2.60;99.90;;;;;;5081009;28;20036;-73
2022/12/13 09:23:23;;;;;;;80.25;39.72;;;-2.50;99.90;;;;;;5096898;28;20074;-74
2022/12/13 09:25:53;;;;;;;74.05;37.17;;;-2.40;99.90;;;;;;5101179;28;20409;-73
2022/12/13 09:28:19;;;;;;;76.45;39.35;;;-2.30;99.90;;;;;;5098064;28;20047;-74
2022/12/13 09:30:45;;;;;;;70.55;37.58;;;-2.20;99.90;;;;;;5104570;28;20039;-74
2022/12/13 09:33:12;;;;;;;68.22;35.38;;;-2.10;99.90;;;;;;5092492;28;20043;-74
2022/12/13 09:35:38;;;;;;;65.00;35.72;;;-2.10;99.90;;;;;;5108174;28;20048;-74
2022/12/13 09:38:03;;;;;;;73.40;37.15;;;-2.00;99.90;;;;;;5055241;27;20073;-74
2022/12/13 09:40:30;;;;;;;69.72;36.42;;;-1.90;99.90;;;;;;5047473;28;20047;-73
2022/12/13 09:42:56;;;;;;;69.45;35.92;;;-1.90;99.90;;;;;;5099177;27;20035;-74
2022/12/13 09:45:23;;;;;;;63.10;33.35;;;-1.80;99.90;;;;;;5099957;28;20043;-74
2022/12/13 09:47:50;;;;;;;68.28;35.92;;;-1.70;99.90;;;;;;5086942;28;20070;-74
2022/12/13 09:50:31;;;;;;;75.32;38.25;;;-1.60;99.90;;;;;;5108556;28;20355;-74
2022/12/13 09:52:59;;;;;;;64.05;34.65;;;-1.50;99.90;;;;;;5090492;28;20046;-73
2022/12/13 09:55:29;;;;;;;68.25;37.30;;;-1.50;99.90;;;;;;5106523;28;20036;-73
2022/12/13 09:57:56;;;;;;;66.65;35.75;;;-1.50;99.90;;;;;;5104051;28;20035;-73
2022/12/13 10:00:24;;;;;;;67.25;36.42;;;-1.40;99.90;;;;;;5109397;27;20038;-73
2022/12/13 10:02:57;;;;;;;62.15;35.17;;;-1.40;99.90;;;;;;5089416;28;20039;-72
2022/12/13 10:05:36;;;;;;;68.03;35.40;;;-1.30;99.90;;;;;;5107365;28;20110;-73
2022/12/13 10:08:11;;;;;;;62.65;35.20;;;-1.20;99.90;;;;;;5091312;28;20050;-72
2022/12/13 10:10:37;;;;;;;60.00;33.88;;;-1.00;99.90;;;;;;5104676;28;20043;-73
2022/12/13 10:13:26;;;;;;;62.88;35.33;;;-1.10;99.90;;;;;;5101133;28;20039;-72
2022/12/13 10:16:00;;;;;;;57.65;33.72;;;-1.10;99.90;;;;;;5078230;28;20139;-72
2022/12/13 10:18:33;;;;;;;66.10;36.15;;;-1.00;99.90;;;;;;5076462;28;20089;-73
2022/12/13 10:21:18;;;;;;;62.10;35.25;;;-0.90;99.90;;;;;;5081562;28;20068;-73
2022/12/13 10:23:44;;;;;;;62.40;35.15;;;-1.10;99.90;;;;;;5061703;28;20044;-73
2022/12/13 10:26:12;;;;;;;57.83;34.95;;;-1.10;99.90;;;;;;5072999;28;20408;-72
2022/12/13 10:28:38;;;;;;;61.85;35.65;;;-1.00;99.90;;;;;;5065069;28;20041;-73
2022/12/13 10:31:05;;;;;;;62.20;36.92;;;-1.00;99.90;;;;;;5067219;28;20503;-73
2022/12/13 10:33:37;;;;;;;64.57;37.78;;;-0.90;99.90;;;;;;5059141;28;20115;-73
2022/12/13 10:36:08;;;;;;;62.60;35.72;;;-0.80;99.90;;;;;;5057776;28;20045;-74
2022/12/13 10:38:37;;;;;;;61.47;35.38;;;-0.80;99.90;;;;;;5058576;28;20041;-74
2022/12/13 10:41:22;;;;;;;57.35;34.72;;;-0.80;99.90;;;;;;5057736;28;20074;-74
2022/12/13 10:44:17;;;;;;;61.25;34.63;;;-0.80;99.90;;;;;;5055655;28;20033;-75
2022/12/13 10:46:50;;;;;;;60.05;34.65;;;-0.80;99.90;;;;;;5058852;28;20045;-74
2022/12/13 10:49:23;;;;;;;62.80;34.88;;;-0.70;99.90;;;;;;5056406;28;20120;-74
2022/12/13 10:51:52;;;;;;;57.08;34.30;;;-0.80;99.90;;;;;;5045570;28;20094;-74
2022/12/13 10:54:31;;;;;;;56.88;35.35;;;-0.80;99.90;;;;;;5057010;28;20133;-74
2022/12/13 10:57:01;;;;;;;64.32;37.08;;;-0.70;99.90;;;;;;5057170;28;20037;-73
2022/12/13 10:59:37;;;;;;;66.32;37.53;;;-0.80;99.90;;;;;;5054747;28;20422;-74
2022/12/13 11:02:38;;;;;;;60.55;35.03;;;-0.80;99.90;;;;;;5056641;28;20041;-74
2022/12/13 11:05:22;;;;;;;59.83;35.78;;;-0.80;99.90;;;;;;5057833;28;20041;-74
2022/12/13 11:07:48;;;;;;;62.72;35.75;;;-0.70;99.90;;;;;;5043959;28;20094;-75
2022/12/13 11:10:23;;;;;;;65.00;37.28;;;-0.80;99.90;;;;;;5052707;28;20399;-74
2022/12/13 11:12:50;;;;;;;63.38;36.50;;;-0.70;99.90;;;;;;5047108;28;20086;-74
2022/12/13 11:15:22;;;;;;;60.47;35.45;;;-0.70;99.90;;;;;;5048710;28;20048;-76
2022/12/13 11:18:05;;;;;;;57.55;34.35;;;-0.80;99.90;;;;;;5057341;28;20036;-74
2022/12/13 11:20:36;;;;;;;62.17;36.40;;;-0.80;99.90;;;;;;5064297;28;20095;-75
2022/12/13 11:23:49;;;;;;;64.70;37.47;;;-0.80;99.90;;;;;;5070600;28;20226;-74
2022/12/13 11:26:18;;;;;;;50.88;28.58;;;-0.80;99.90;;;;;;4993341;28;20292;-74
2022/12/13 11:29:16;;;;;;;60.22;35.40;;;-0.80;99.90;;;;;;5056304;28;20036;-74
2022/12/13 11:31:44;;;;;;;63.17;38.13;;;-0.80;99.90;;;;;;5062397;28;20141;-74
2022/12/13 11:34:20;;;;;;;65.55;37.70;;;-0.80;99.90;;;;;;5070008;28;20074;-76
2022/12/13 11:36:53;;;;;;;68.15;38.33;;;-0.70;99.90;;;;;;5061495;28;20059;-73
2022/12/13 11:39:40;;;;;;;67.07;39.20;;;-0.80;99.90;;;;;;5061084;28;20035;-74
2022/12/13 11:42:30;;;;;;;65.50;38.55;;;-0.80;99.90;;;;;;5058395;28;20040;-73
2022/12/13 11:45:25;;;;;;;77.78;40.78;;;-0.80;99.90;;;;;;5082575;28;20036;-73
2022/12/13 11:48:18;;;;;;;59.90;35.83;;;-0.70;99.90;;;;;;5061430;28;20047;-74
2022/12/13 11:50:48;;;;;;;66.97;38.00;;;-0.70;99.90;;;;;;5068678;28;20119;-73
2022/12/13 11:53:38;;;;;;;70.45;39.95;;;-0.70;99.90;;;;;;5065500;28;20044;-74
2022/12/13 11:56:11;;;;;;;64.15;37.88;;;-0.80;99.90;;;;;;5067689;28;20051;-74
2022/12/13 11:59:06;;;;;;;67.35;39.22;;;-0.80;99.90;;;;;;5066250;28;20040;-74
2022/12/13 12:02:00;;;;;;;63.75;37.30;;;-0.80;99.90;;;;;;5064385;28;20044;-74
2022/12/13 12:04:42;;;;;;;61.92;36.88;;;-0.80;99.90;;;;;;5061663;28;20041;-73
2022/12/13 12:07:21;;;;;;;66.45;37.47;;;-0.70;99.90;;;;;;5067601;28;20488;-74
2022/12/13 12:09:52;;;;;;;63.40;36.85;;;-0.80;99.90;;;;;;5054760;28;20040;-74
2022/12/13 12:12:24;;;;;;;64.97;37.03;;;-0.70;99.90;;;;;;5056458;28;20044;-73
2022/12/13 12:14:55;;;;;;;60.42;36.38;;;-0.80;99.90;;;;;;5051992;28;20582;-74
2022/12/13 12:17:25;;;;;;;62.40;36.50;;;-0.80;99.90;;;;;;5052351;28;20115;-73
2022/12/13 12:19:53;;;;;;;66.35;38.88;;;-0.80;99.90;;;;;;5051307;28;20036;-73
2022/12/13 12:22:27;;;;;;;63.45;38.88;;;-0.70;99.90;;;;;;5051575;28;20155;-73
2022/12/13 12:25:24;;;;;;;70.70;41.28;;;-0.70;99.90;;;;;;5051703;28;20037;-73
2022/12/13 12:28:11;;;;;;;64.13;37.47;;;-0.70;99.90;;;;;;5053163;28;20052;-73
2022/12/13 12:30:49;;;;;;;63.03;37.70;;;-0.70;99.90;;;;;;5036907;28;20103;-74
2022/12/13 12:33:42;;;;;;;62.15;38.72;;;-0.60;99.90;;;;;;5053728;28;20040;-73
2022/12/13 12:36:15;;;;;;;65.93;38.67;;;-0.70;99.90;;;;;;5054311;28;20041;-73
2022/12/13 12:39:03;;;;;;;61.72;37.25;;;-0.60;99.90;;;;;;5059139;28;20073;-74
2022/12/13 12:41:41;;;;;;;63.72;38.03;;;-0.60;99.90;;;;;;5061151;28;20071;-73
2022/12/13 12:44:12;;;;;;;62.33;37.38;;;-0.70;99.90;;;;;;5059275;28;20044;-74
2022/12/13 12:47:02;;;;;;;61.23;38.50;;;-0.70;99.90;;;;;;5062626;28;20127;-74
2022/12/13 12:50:01;;;;;;;62.85;37.28;;;-0.70;99.90;;;;;;5057119;28;20050;-73
2022/12/13 12:52:46;;;;;;;65.38;37.92;;;-0.70;99.90;;;;;;5063464;28;20044;-73